sensor_id;sensor_type;location;lat;lon;timestamp;P1;durP1;ratioP1;P2;durP2;ratioP2
27127;SDS011;14660;49.008;8.390;2023-04-25T00:02:07;6.22;;;3.35;;
27127;SDS011;14660;49.008;8.390;2023-04-25T00:04:34;6.35;;;3.28;;
27127;SDS011;14660;49.008;8.390;2023-04-25T00:07:03;5.53;;;3.55;;
27127;SDS011;14660;49.008;8.390;2023-04-25T00:09:31;5.32;;;3.30;;
27127;SDS011;14660;49.008;8.390;2023-04-25T00:11:58;6.55;;;3.92;;
27127;SDS011;14660;49.008;8.390;2023-04-25T00:14:24;3.67;;;3.10;;
27127;SDS011;14660;49.008;8.390;2023-04-25T00:16:52;8.13;;;3.72;;
27127;SDS011;14660;49.008;8.390;2023-04-25T00:19:20;5.20;;;3.20;;
27127;SDS011;14660;49.008;8.390;2023-04-25T00:21:47;3.22;;;2.80;;
27127;SDS011;14660;49.008;8.390;2023-04-25T00:24:14;6.30;;;3.70;;
27127;SDS011;14660;49.008;8.390;2023-04-25T00:26:41;6.38;;;3.70;;
27127;SDS011;14660;49.008;8.390;2023-04-25T00:29:10;5.07;;;3.58;;
27127;SDS011;14660;49.008;8.390;2023-04-25T00:31:37;5.05;;;3.30;;
27127;SDS011;14660;49.008;8.390;2023-04-25T00:34:05;3.83;;;3.05;;
27127;SDS011;14660;49.008;8.390;2023-04-25T00:36:32;4.22;;;3.03;;
27127;SDS011;14660;49.008;8.390;2023-04-25T00:38:59;7.47;;;3.20;;
27127;SDS011;14660;49.008;8.390;2023-04-25T00:41:26;4.32;;;2.97;;
27127;SDS011;14660;49.008;8.390;2023-04-25T00:43:53;3.53;;;3.08;;
27127;SDS011;14660;49.008;8.390;2023-04-25T00:46:22;3.65;;;2.78;;
27127;SDS011;14660;49.008;8.390;2023-04-25T00:48:49;5.45;;;3.22;;
27127;SDS011;14660;49.008;8.390;2023-04-25T00:51:19;4.25;;;2.58;;
27127;SDS011;14660;49.008;8.390;2023-04-25T00:53:47;3.70;;;3.00;;
27127;SDS011;14660;49.008;8.390;2023-04-25T00:56:15;4.07;;;2.97;;
27127;SDS011;14660;49.008;8.390;2023-04-25T00:58:42;4.57;;;3.33;;
27127;SDS011;14660;49.008;8.390;2023-04-25T01:01:10;4.45;;;3.28;;
27127;SDS011;14660;49.008;8.390;2023-04-25T01:03:38;4.78;;;3.53;;
27127;SDS011;14660;49.008;8.390;2023-04-25T01:06:11;3.85;;;2.97;;
27127;SDS011;14660;49.008;8.390;2023-04-25T01:08:38;3.72;;;2.38;;
27127;SDS011;14660;49.008;8.390;2023-04-25T01:11:05;3.63;;;2.67;;
27127;SDS011;14660;49.008;8.390;2023-04-25T01:13:33;3.10;;;2.78;;
27127;SDS011;14660;49.008;8.390;2023-04-25T01:16:01;5.65;;;2.75;;
27127;SDS011;14660;49.008;8.390;2023-04-25T01:18:28;4.65;;;2.88;;
27127;SDS011;14660;49.008;8.390;2023-04-25T01:20:55;3.78;;;2.70;;
27127;SDS011;14660;49.008;8.390;2023-04-25T01:23:22;5.60;;;4.30;;
27127;SDS011;14660;49.008;8.390;2023-04-25T01:25:49;4.03;;;2.83;;
27127;SDS011;14660;49.008;8.390;2023-04-25T01:28:17;4.43;;;2.83;;
27127;SDS011;14660;49.008;8.390;2023-04-25T01:30:44;4.68;;;3.70;;
27127;SDS011;14660;49.008;8.390;2023-04-25T01:33:12;5.47;;;3.72;;
27127;SDS011;14660;49.008;8.390;2023-04-25T01:35:40;5.28;;;2.67;;
27127;SDS011;14660;49.008;8.390;2023-04-25T01:38:07;5.00;;;3.03;;
27127;SDS011;14660;49.008;8.390;2023-04-25T01:40:35;5.22;;;3.10;;
27127;SDS011;14660;49.008;8.390;2023-04-25T01:43:05;5.35;;;3.28;;
27127;SDS011;14660;49.008;8.390;2023-04-25T01:45:34;5.53;;;3.03;;
27127;SDS011;14660;49.008;8.390;2023-04-25T01:48:02;4.45;;;2.80;;
27127;SDS011;14660;49.008;8.390;2023-04-25T01:50:29;3.72;;;2.78;;
27127;SDS011;14660;49.008;8.390;2023-04-25T01:52:56;5.10;;;3.50;;
27127;SDS011;14660;49.008;8.390;2023-04-25T01:55:23;4.32;;;3.20;;
27127;SDS011;14660;49.008;8.390;2023-04-25T01:57:51;4.68;;;3.17;;
27127;SDS011;14660;49.008;8.390;2023-04-25T02:00:18;4.05;;;3.40;;
27127;SDS011;14660;49.008;8.390;2023-04-25T02:02:44;4.28;;;2.70;;
27127;SDS011;14660;49.008;8.390;2023-04-25T02:05:11;7.10;;;4.00;;
27127;SDS011;14660;49.008;8.390;2023-04-25T02:07:38;4.50;;;2.85;;
27127;SDS011;14660;49.008;8.390;2023-04-25T02:10:05;5.70;;;4.00;;
27127;SDS011;14660;49.008;8.390;2023-04-25T02:12:32;5.65;;;2.85;;
27127;SDS011;14660;49.008;8.390;2023-04-25T02:14:59;3.20;;;2.53;;
27127;SDS011;14660;49.008;8.390;2023-04-25T02:17:27;4.90;;;2.67;;
27127;SDS011;14660;49.008;8.390;2023-04-25T02:19:54;4.22;;;2.95;;
27127;SDS011;14660;49.008;8.390;2023-04-25T02:22:21;4.88;;;3.10;;
27127;SDS011;14660;49.008;8.390;2023-04-25T02:24:48;4.43;;;2.75;;
27127;SDS011;14660;49.008;8.390;2023-04-25T02:27:15;4.65;;;3.05;;
27127;SDS011;14660;49.008;8.390;2023-04-25T02:29:40;3.92;;;3.00;;
27127;SDS011;14660;49.008;8.390;2023-04-25T02:32:07;5.75;;;3.88;;
27127;SDS011;14660;49.008;8.390;2023-04-25T02:34:34;5.22;;;3.40;;
27127;SDS011;14660;49.008;8.390;2023-04-25T02:37:01;4.97;;;2.80;;
27127;SDS011;14660;49.008;8.390;2023-04-25T02:39:27;6.18;;;3.13;;
27127;SDS011;14660;49.008;8.390;2023-04-25T02:41:54;4.43;;;3.45;;
27127;SDS011;14660;49.008;8.390;2023-04-25T02:44:21;5.78;;;3.47;;
27127;SDS011;14660;49.008;8.390;2023-04-25T02:46:48;5.07;;;3.58;;
27127;SDS011;14660;49.008;8.390;2023-04-25T02:49:15;4.43;;;3.30;;
27127;SDS011;14660;49.008;8.390;2023-04-25T02:51:42;4.38;;;3.30;;
27127;SDS011;14660;49.008;8.390;2023-04-25T02:54:08;4.47;;;3.25;;
27127;SDS011;14660;49.008;8.390;2023-04-25T02:56:36;5.68;;;2.90;;
27127;SDS011;14660;49.008;8.390;2023-04-25T02:59:03;5.88;;;3.30;;
27127;SDS011;14660;49.008;8.390;2023-04-25T03:01:30;4.18;;;3.03;;
27127;SDS011;14660;49.008;8.390;2023-04-25T03:03:57;4.13;;;3.17;;
27127;SDS011;14660;49.008;8.390;2023-04-25T03:06:23;5.50;;;3.03;;
27127;SDS011;14660;49.008;8.390;2023-04-25T03:08:50;5.15;;;3.05;;
27127;SDS011;14660;49.008;8.390;2023-04-25T03:11:17;5.03;;;3.67;;
27127;SDS011;14660;49.008;8.390;2023-04-25T03:13:46;5.40;;;3.70;;
27127;SDS011;14660;49.008;8.390;2023-04-25T03:16:13;5.28;;;3.67;;
27127;SDS011;14660;49.008;8.390;2023-04-25T03:18:40;7.03;;;3.92;;
27127;SDS011;14660;49.008;8.390;2023-04-25T03:21:07;7.22;;;4.63;;
27127;SDS011;14660;49.008;8.390;2023-04-25T03:23:34;5.43;;;3.70;;
27127;SDS011;14660;49.008;8.390;2023-04-25T03:26:01;5.28;;;4.03;;
27127;SDS011;14660;49.008;8.390;2023-04-25T03:28:27;5.85;;;3.95;;
27127;SDS011;14660;49.008;8.390;2023-04-25T03:30:54;4.45;;;3.53;;
27127;SDS011;14660;49.008;8.390;2023-04-25T03:33:21;4.97;;;3.28;;
27127;SDS011;14660;49.008;8.390;2023-04-25T03:35:48;6.63;;;4.22;;
27127;SDS011;14660;49.008;8.390;2023-04-25T03:38:16;5.85;;;3.72;;
27127;SDS011;14660;49.008;8.390;2023-04-25T03:40:43;4.18;;;3.75;;
27127;SDS011;14660;49.008;8.390;2023-04-25T03:43:10;7.03;;;3.15;;
27127;SDS011;14660;49.008;8.390;2023-04-25T03:45:37;9.63;;;3.30;;
27127;SDS011;14660;49.008;8.390;2023-04-25T03:48:04;4.45;;;3.13;;
27127;SDS011;14660;49.008;8.390;2023-04-25T03:50:31;4.50;;;2.97;;
27127;SDS011;14660;49.008;8.390;2023-04-25T03:52:58;5.90;;;4.15;;
27127;SDS011;14660;49.008;8.390;2023-04-25T03:55:25;4.72;;;3.15;;
27127;SDS011;14660;49.008;8.390;2023-04-25T03:57:52;4.00;;;3.13;;
27127;SDS011;14660;49.008;8.390;2023-04-25T04:00:18;5.18;;;3.33;;
27127;SDS011;14660;49.008;8.390;2023-04-25T04:02:45;4.32;;;3.10;;
27127;SDS011;14660;49.008;8.390;2023-04-25T04:05:12;5.38;;;3.28;;
27127;SDS011;14660;49.008;8.390;2023-04-25T04:07:39;5.85;;;3.20;;
27127;SDS011;14660;49.008;8.390;2023-04-25T04:10:06;4.55;;;3.17;;
27127;SDS011;14660;49.008;8.390;2023-04-25T04:12:34;4.68;;;3.40;;
27127;SDS011;14660;49.008;8.390;2023-04-25T04:15:02;3.53;;;2.70;;
27127;SDS011;14660;49.008;8.390;2023-04-25T04:17:29;4.78;;;3.25;;
27127;SDS011;14660;49.008;8.390;2023-04-25T04:19:56;5.60;;;3.58;;
27127;SDS011;14660;49.008;8.390;2023-04-25T04:22:24;4.35;;;3.08;;
27127;SDS011;14660;49.008;8.390;2023-04-25T04:24:51;4.50;;;3.50;;
27127;SDS011;14660;49.008;8.390;2023-04-25T04:27:21;3.30;;;2.83;;
27127;SDS011;14660;49.008;8.390;2023-04-25T04:29:47;5.32;;;3.92;;
27127;SDS011;14660;49.008;8.390;2023-04-25T04:32:15;6.18;;;3.67;;
27127;SDS011;14660;49.008;8.390;2023-04-25T04:34:43;5.03;;;3.33;;
27127;SDS011;14660;49.008;8.390;2023-04-25T04:37:10;5.47;;;4.00;;
27127;SDS011;14660;49.008;8.390;2023-04-25T04:39:39;7.10;;;3.58;;
27127;SDS011;14660;49.008;8.390;2023-04-25T04:42:07;4.38;;;2.83;;
27127;SDS011;14660;49.008;8.390;2023-04-25T04:44:34;7.15;;;4.57;;
27127;SDS011;14660;49.008;8.390;2023-04-25T04:47:01;6.82;;;3.70;;
27127;SDS011;14660;49.008;8.390;2023-04-25T04:49:32;5.00;;;3.30;;
27127;SDS011;14660;49.008;8.390;2023-04-25T04:51:59;5.95;;;4.68;;
27127;SDS011;14660;49.008;8.390;2023-04-25T04:54:26;5.15;;;4.07;;
27127;SDS011;14660;49.008;8.390;2023-04-25T04:56:53;5.53;;;4.25;;
27127;SDS011;14660;49.008;8.390;2023-04-25T04:59:20;5.80;;;4.03;;
27127;SDS011;14660;49.008;8.390;2023-04-25T05:01:47;6.55;;;3.90;;
27127;SDS011;14660;49.008;8.390;2023-04-25T05:04:14;6.28;;;3.97;;
27127;SDS011;14660;49.008;8.390;2023-04-25T05:06:41;4.30;;;3.67;;
27127;SDS011;14660;49.008;8.390;2023-04-25T05:09:08;6.88;;;3.30;;
27127;SDS011;14660;49.008;8.390;2023-04-25T05:11:36;5.43;;;3.72;;
27127;SDS011;14660;49.008;8.390;2023-04-25T05:14:02;6.50;;;3.67;;
27127;SDS011;14660;49.008;8.390;2023-04-25T05:16:29;7.75;;;3.97;;
27127;SDS011;14660;49.008;8.390;2023-04-25T05:18:56;3.92;;;3.40;;
27127;SDS011;14660;49.008;8.390;2023-04-25T05:21:23;4.28;;;3.88;;
27127;SDS011;14660;49.008;8.390;2023-04-25T05:23:50;8.07;;;3.60;;
27127;SDS011;14660;49.008;8.390;2023-04-25T05:26:17;4.97;;;3.92;;
27127;SDS011;14660;49.008;8.390;2023-04-25T05:28:43;7.50;;;3.70;;
27127;SDS011;14660;49.008;8.390;2023-04-25T05:31:10;4.97;;;3.45;;
27127;SDS011;14660;49.008;8.390;2023-04-25T05:33:37;4.35;;;3.60;;
27127;SDS011;14660;49.008;8.390;2023-04-25T05:36:05;5.22;;;3.60;;
27127;SDS011;14660;49.008;8.390;2023-04-25T05:38:32;4.10;;;3.03;;
27127;SDS011;14660;49.008;8.390;2023-04-25T05:40:59;5.15;;;3.55;;
27127;SDS011;14660;49.008;8.390;2023-04-25T05:43:27;5.10;;;3.67;;
27127;SDS011;14660;49.008;8.390;2023-04-25T05:45:53;6.82;;;3.53;;
27127;SDS011;14660;49.008;8.390;2023-04-25T05:48:20;4.22;;;3.03;;
27127;SDS011;14660;49.008;8.390;2023-04-25T05:50:47;3.60;;;2.90;;
27127;SDS011;14660;49.008;8.390;2023-04-25T05:53:14;3.60;;;3.15;;
27127;SDS011;14660;49.008;8.390;2023-04-25T05:55:41;5.63;;;2.92;;
27127;SDS011;14660;49.008;8.390;2023-04-25T05:58:07;4.68;;;3.50;;
27127;SDS011;14660;49.008;8.390;2023-04-25T06:00:34;4.05;;;3.15;;
27127;SDS011;14660;49.008;8.390;2023-04-25T06:03:01;7.03;;;3.50;;
27127;SDS011;14660;49.008;8.390;2023-04-25T06:05:28;4.43;;;3.15;;
27127;SDS011;14660;49.008;8.390;2023-04-25T06:07:56;4.75;;;3.38;;
27127;SDS011;14660;49.008;8.390;2023-04-25T06:10:23;5.20;;;3.55;;
27127;SDS011;14660;49.008;8.390;2023-04-25T06:12:48;5.18;;;3.72;;
27127;SDS011;14660;49.008;8.390;2023-04-25T06:15:16;6.55;;;3.65;;
27127;SDS011;14660;49.008;8.390;2023-04-25T06:17:42;3.92;;;3.38;;
27127;SDS011;14660;49.008;8.390;2023-04-25T06:20:10;6.05;;;3.47;;
27127;SDS011;14660;49.008;8.390;2023-04-25T06:22:38;8.80;;;4.55;;
27127;SDS011;14660;49.008;8.390;2023-04-25T06:25:04;4.47;;;3.22;;
27127;SDS011;14660;49.008;8.390;2023-04-25T06:27:33;5.38;;;3.75;;
27127;SDS011;14660;49.008;8.390;2023-04-25T06:29:59;7.05;;;4.05;;
27127;SDS011;14660;49.008;8.390;2023-04-25T06:32:26;5.78;;;4.55;;
27127;SDS011;14660;49.008;8.390;2023-04-25T06:34:54;4.82;;;3.42;;
27127;SDS011;14660;49.008;8.390;2023-04-25T06:37:21;6.60;;;3.63;;
27127;SDS011;14660;49.008;8.390;2023-04-25T06:39:48;4.40;;;3.10;;
27127;SDS011;14660;49.008;8.390;2023-04-25T06:42:15;5.20;;;3.83;;
27127;SDS011;14660;49.008;8.390;2023-04-25T06:44:41;5.20;;;3.58;;
27127;SDS011;14660;49.008;8.390;2023-04-25T06:47:08;5.00;;;3.50;;
27127;SDS011;14660;49.008;8.390;2023-04-25T06:49:35;5.50;;;3.70;;
27127;SDS011;14660;49.008;8.390;2023-04-25T06:52:03;6.97;;;3.78;;
27127;SDS011;14660;49.008;8.390;2023-04-25T06:54:29;5.18;;;3.72;;
27127;SDS011;14660;49.008;8.390;2023-04-25T06:56:56;5.70;;;4.63;;
27127;SDS011;14660;49.008;8.390;2023-04-25T06:59:23;5.72;;;3.58;;
27127;SDS011;14660;49.008;8.390;2023-04-25T07:01:50;6.72;;;4.28;;
27127;SDS011;14660;49.008;8.390;2023-04-25T07:04:17;4.72;;;3.50;;
27127;SDS011;14660;49.008;8.390;2023-04-25T07:06:44;6.53;;;4.93;;
27127;SDS011;14660;49.008;8.390;2023-04-25T07:09:13;6.43;;;4.22;;
27127;SDS011;14660;49.008;8.390;2023-04-25T07:11:40;5.00;;;4.43;;
27127;SDS011;14660;49.008;8.390;2023-04-25T07:14:07;7.30;;;4.70;;
27127;SDS011;14660;49.008;8.390;2023-04-25T07:16:34;5.68;;;4.47;;
27127;SDS011;14660;49.008;8.390;2023-04-25T07:19:01;5.43;;;4.13;;
27127;SDS011;14660;49.008;8.390;2023-04-25T07:21:27;6.80;;;4.05;;
27127;SDS011;14660;49.008;8.390;2023-04-25T07:23:54;8.18;;;4.40;;
27127;SDS011;14660;49.008;8.390;2023-04-25T07:26:21;6.22;;;4.93;;
27127;SDS011;14660;49.008;8.390;2023-04-25T07:28:48;8.50;;;5.28;;
27127;SDS011;14660;49.008;8.390;2023-04-25T07:31:17;8.82;;;5.30;;
27127;SDS011;14660;49.008;8.390;2023-04-25T07:33:44;8.10;;;5.78;;
27127;SDS011;14660;49.008;8.390;2023-04-25T07:36:12;6.07;;;4.65;;
27127;SDS011;14660;49.008;8.390;2023-04-25T07:38:39;10.00;;;5.70;;
27127;SDS011;14660;49.008;8.390;2023-04-25T07:41:06;6.47;;;4.55;;
27127;SDS011;14660;49.008;8.390;2023-04-25T07:43:32;8.80;;;5.68;;
27127;SDS011;14660;49.008;8.390;2023-04-25T07:45:59;7.47;;;5.30;;
27127;SDS011;14660;49.008;8.390;2023-04-25T07:48:26;6.88;;;5.35;;
27127;SDS011;14660;49.008;8.390;2023-04-25T07:50:53;8.25;;;5.28;;
27127;SDS011;14660;49.008;8.390;2023-04-25T07:53:20;8.60;;;6.15;;
27127;SDS011;14660;49.008;8.390;2023-04-25T07:55:47;8.15;;;5.60;;
27127;SDS011;14660;49.008;8.390;2023-04-25T07:58:14;7.82;;;5.80;;
27127;SDS011;14660;49.008;8.390;2023-04-25T08:00:42;8.20;;;5.53;;
27127;SDS011;14660;49.008;8.390;2023-04-25T08:03:09;10.55;;;6.93;;
27127;SDS011;14660;49.008;8.390;2023-04-25T08:05:35;8.60;;;5.50;;
27127;SDS011;14660;49.008;8.390;2023-04-25T08:08:02;9.68;;;6.93;;
27127;SDS011;14660;49.008;8.390;2023-04-25T08:10:30;8.35;;;5.85;;
27127;SDS011;14660;49.008;8.390;2023-04-25T08:12:58;11.05;;;6.88;;
27127;SDS011;14660;49.008;8.390;2023-04-25T08:15:25;9.65;;;6.40;;
27127;SDS011;14660;49.008;8.390;2023-04-25T08:17:52;11.18;;;7.22;;
27127;SDS011;14660;49.008;8.390;2023-04-25T08:20:19;8.40;;;6.53;;
27127;SDS011;14660;49.008;8.390;2023-04-25T08:22:47;9.30;;;6.38;;
27127;SDS011;14660;49.008;8.390;2023-04-25T08:25:15;16.58;;;11.00;;
27127;SDS011;14660;49.008;8.390;2023-04-25T08:27:42;10.15;;;6.80;;
27127;SDS011;14660;49.008;8.390;2023-04-25T08:30:10;9.20;;;6.32;;
27127;SDS011;14660;49.008;8.390;2023-04-25T08:32:37;8.25;;;5.65;;
27127;SDS011;14660;49.008;8.390;2023-04-25T08:35:07;10.27;;;6.63;;
27127;SDS011;14660;49.008;8.390;2023-04-25T08:37:34;8.63;;;6.07;;
27127;SDS011;14660;49.008;8.390;2023-04-25T08:40:03;10.10;;;6.90;;
27127;SDS011;14660;49.008;8.390;2023-04-25T08:42:37;10.95;;;7.72;;
27127;SDS011;14660;49.008;8.390;2023-04-25T08:45:04;10.57;;;7.00;;
27127;SDS011;14660;49.008;8.390;2023-04-25T08:47:33;12.13;;;7.85;;
27127;SDS011;14660;49.008;8.390;2023-04-25T08:50:04;13.68;;;8.25;;
27127;SDS011;14660;49.008;8.390;2023-04-25T08:52:35;10.65;;;6.75;;
27127;SDS011;14660;49.008;8.390;2023-04-25T08:55:09;12.43;;;7.57;;
27127;SDS011;14660;49.008;8.390;2023-04-25T08:57:37;8.93;;;6.90;;
27127;SDS011;14660;49.008;8.390;2023-04-25T09:00:06;10.52;;;8.48;;
27127;SDS011;14660;49.008;8.390;2023-04-25T09:02:33;12.13;;;7.47;;
27127;SDS011;14660;49.008;8.390;2023-04-25T09:05:02;11.45;;;7.68;;
27127;SDS011;14660;49.008;8.390;2023-04-25T09:07:31;10.48;;;7.13;;
27127;SDS011;14660;49.008;8.390;2023-04-25T09:09:58;10.55;;;7.93;;
27127;SDS011;14660;49.008;8.390;2023-04-25T09:12:29;13.88;;;7.65;;
27127;SDS011;14660;49.008;8.390;2023-04-25T09:17:41;12.68;;;7.97;;
27127;SDS011;14660;49.008;8.390;2023-04-25T09:20:11;11.60;;;8.20;;
27127;SDS011;14660;49.008;8.390;2023-04-25T09:22:39;11.55;;;7.30;;
27127;SDS011;14660;49.008;8.390;2023-04-25T09:25:10;11.90;;;7.35;;
27127;SDS011;14660;49.008;8.390;2023-04-25T09:27:59;12.90;;;7.35;;
27127;SDS011;14660;49.008;8.390;2023-04-25T09:30:30;13.93;;;8.52;;
27127;SDS011;14660;49.008;8.390;2023-04-25T09:35:45;15.38;;;8.00;;
27127;SDS011;14660;49.008;8.390;2023-04-25T09:38:12;12.60;;;7.30;;
27127;SDS011;14660;49.008;8.390;2023-04-25T09:40:41;11.43;;;7.53;;
27127;SDS011;14660;49.008;8.390;2023-04-25T09:43:19;13.73;;;8.57;;
27127;SDS011;14660;49.008;8.390;2023-04-25T09:45:46;20.55;;;11.00;;
27127;SDS011;14660;49.008;8.390;2023-04-25T09:48:22;21.42;;;11.88;;
27127;SDS011;14660;49.008;8.390;2023-04-25T09:51:09;15.90;;;10.30;;
27127;SDS011;14660;49.008;8.390;2023-04-25T09:53:40;12.93;;;8.23;;
27127;SDS011;14660;49.008;8.390;2023-04-25T09:56:12;13.93;;;10.18;;
27127;SDS011;14660;49.008;8.390;2023-04-25T09:58:42;13.90;;;8.65;;
27127;SDS011;14660;49.008;8.390;2023-04-25T10:01:09;14.23;;;8.75;;
27127;SDS011;14660;49.008;8.390;2023-04-25T10:03:39;19.27;;;11.43;;
27127;SDS011;14660;49.008;8.390;2023-04-25T10:06:13;24.45;;;11.52;;
27127;SDS011;14660;49.008;8.390;2023-04-25T10:08:43;20.95;;;12.75;;
27127;SDS011;14660;49.008;8.390;2023-04-25T10:11:14;20.55;;;10.52;;
27127;SDS011;14660;49.008;8.390;2023-04-25T10:13:42;29.05;;;13.57;;
27127;SDS011;14660;49.008;8.390;2023-04-25T10:16:09;22.48;;;12.15;;
27127;SDS011;14660;49.008;8.390;2023-04-25T10:18:36;18.30;;;10.05;;
27127;SDS011;14660;49.008;8.390;2023-04-25T10:21:04;16.00;;;9.30;;
27127;SDS011;14660;49.008;8.390;2023-04-25T10:23:32;17.38;;;9.70;;
27127;SDS011;14660;49.008;8.390;2023-04-25T10:26:03;19.90;;;10.27;;
27127;SDS011;14660;49.008;8.390;2023-04-25T10:28:33;15.73;;;9.65;;
27127;SDS011;14660;49.008;8.390;2023-04-25T10:31:29;15.32;;;9.38;;
27127;SDS011;14660;49.008;8.390;2023-04-25T10:33:57;22.85;;;9.77;;
27127;SDS011;14660;49.008;8.390;2023-04-25T10:36:26;18.83;;;9.88;;
27127;SDS011;14660;49.008;8.390;2023-04-25T10:38:58;13.88;;;9.35;;
27127;SDS011;14660;49.008;8.390;2023-04-25T10:41:45;15.32;;;8.95;;
27127;SDS011;14660;49.008;8.390;2023-04-25T10:44:14;16.33;;;9.88;;
27127;SDS011;14660;49.008;8.390;2023-04-25T10:46:41;18.58;;;11.40;;
27127;SDS011;14660;49.008;8.390;2023-04-25T10:49:27;18.40;;;9.50;;
27127;SDS011;14660;49.008;8.390;2023-04-25T10:55:00;13.20;;;9.50;;
27127;SDS011;14660;49.008;8.390;2023-04-25T11:00:19;16.95;;;10.35;;
27127;SDS011;14660;49.008;8.390;2023-04-25T11:05:20;14.77;;;8.20;;
27127;SDS011;14660;49.008;8.390;2023-04-25T11:07:55;15.75;;;8.48;;
27127;SDS011;14660;49.008;8.390;2023-04-25T11:10:34;17.45;;;9.05;;
27127;SDS011;14660;49.008;8.390;2023-04-25T11:13:01;15.23;;;7.68;;
27127;SDS011;14660;49.008;8.390;2023-04-25T11:15:28;14.43;;;9.40;;
27127;SDS011;14660;49.008;8.390;2023-04-25T11:17:55;13.57;;;7.88;;
27127;SDS011;14660;49.008;8.390;2023-04-25T11:20:24;14.25;;;8.15;;
27127;SDS011;14660;49.008;8.390;2023-04-25T11:22:52;15.85;;;8.85;;
27127;SDS011;14660;49.008;8.390;2023-04-25T11:25:19;17.17;;;10.35;;
27127;SDS011;14660;49.008;8.390;2023-04-25T11:30:31;14.93;;;9.68;;
27127;SDS011;14660;49.008;8.390;2023-04-25T11:32:58;20.00;;;9.90;;
27127;SDS011;14660;49.008;8.390;2023-04-25T11:35:26;14.63;;;9.38;;
27127;SDS011;14660;49.008;8.390;2023-04-25T11:37:53;6.68;;;3.97;;
27127;SDS011;14660;49.008;8.390;2023-04-25T11:40:20;6.28;;;3.10;;
27127;SDS011;14660;49.008;8.390;2023-04-25T11:42:47;4.60;;;2.83;;
27127;SDS011;14660;49.008;8.390;2023-04-25T11:45:14;4.93;;;3.10;;
27127;SDS011;14660;49.008;8.390;2023-04-25T11:47:41;4.03;;;2.20;;
27127;SDS011;14660;49.008;8.390;2023-04-25T11:50:08;4.90;;;3.08;;
27127;SDS011;14660;49.008;8.390;2023-04-25T11:52:46;6.78;;;3.72;;
27127;SDS011;14660;49.008;8.390;2023-04-25T11:55:16;4.38;;;3.22;;
27127;SDS011;14660;49.008;8.390;2023-04-25T11:57:50;6.80;;;4.18;;
27127;SDS011;14660;49.008;8.390;2023-04-25T12:03:01;9.30;;;4.75;;
27127;SDS011;14660;49.008;8.390;2023-04-25T12:05:30;7.30;;;4.10;;
27127;SDS011;14660;49.008;8.390;2023-04-25T12:08:20;10.55;;;6.22;;
27127;SDS011;14660;49.008;8.390;2023-04-25T12:10:46;9.32;;;5.68;;
27127;SDS011;14660;49.008;8.390;2023-04-25T12:15:58;12.85;;;6.57;;
27127;SDS011;14660;49.008;8.390;2023-04-25T12:18:26;9.82;;;6.28;;
27127;SDS011;14660;49.008;8.390;2023-04-25T12:20:52;10.27;;;6.13;;
27127;SDS011;14660;49.008;8.390;2023-04-25T12:23:29;9.57;;;6.18;;
27127;SDS011;14660;49.008;8.390;2023-04-25T12:25:56;11.52;;;6.90;;
27127;SDS011;14660;49.008;8.390;2023-04-25T12:28:24;10.27;;;6.47;;
27127;SDS011;14660;49.008;8.390;2023-04-25T12:33:38;11.52;;;5.97;;
27127;SDS011;14660;49.008;8.390;2023-04-25T12:36:06;6.88;;;5.10;;
27127;SDS011;14660;49.008;8.390;2023-04-25T12:38:41;7.72;;;5.00;;
27127;SDS011;14660;49.008;8.390;2023-04-25T12:41:08;6.72;;;4.70;;
27127;SDS011;14660;49.008;8.390;2023-04-25T12:43:35;7.45;;;5.07;;
27127;SDS011;14660;49.008;8.390;2023-04-25T12:46:02;8.18;;;5.57;;
27127;SDS011;14660;49.008;8.390;2023-04-25T12:48:29;5.82;;;4.65;;
27127;SDS011;14660;49.008;8.390;2023-04-25T12:50:57;5.22;;;4.45;;
27127;SDS011;14660;49.008;8.390;2023-04-25T12:53:23;6.13;;;4.45;;
27127;SDS011;14660;49.008;8.390;2023-04-25T12:55:50;6.10;;;3.90;;
27127;SDS011;14660;49.008;8.390;2023-04-25T12:58:18;4.53;;;2.72;;
27127;SDS011;14660;49.008;8.390;2023-04-25T13:00:45;4.63;;;3.00;;
27127;SDS011;14660;49.008;8.390;2023-04-25T13:03:12;4.43;;;3.60;;
27127;SDS011;14660;49.008;8.390;2023-04-25T13:05:39;5.70;;;3.55;;
27127;SDS011;14660;49.008;8.390;2023-04-25T13:08:06;4.82;;;3.90;;
27127;SDS011;14660;49.008;8.390;2023-04-25T13:10:33;5.72;;;4.05;;
27127;SDS011;14660;49.008;8.390;2023-04-25T13:13:00;7.47;;;4.30;;
27127;SDS011;14660;49.008;8.390;2023-04-25T13:15:27;5.85;;;4.18;;
27127;SDS011;14660;49.008;8.390;2023-04-25T13:17:54;5.20;;;3.80;;
27127;SDS011;14660;49.008;8.390;2023-04-25T13:20:22;7.65;;;4.00;;
27127;SDS011;14660;49.008;8.390;2023-04-25T13:22:49;4.82;;;3.70;;
27127;SDS011;14660;49.008;8.390;2023-04-25T13:25:16;5.55;;;3.47;;
27127;SDS011;14660;49.008;8.390;2023-04-25T13:27:43;7.28;;;3.47;;
27127;SDS011;14660;49.008;8.390;2023-04-25T13:30:11;4.78;;;3.22;;
27127;SDS011;14660;49.008;8.390;2023-04-25T13:32:38;7.22;;;3.58;;
27127;SDS011;14660;49.008;8.390;2023-04-25T13:35:06;5.60;;;3.28;;
27127;SDS011;14660;49.008;8.390;2023-04-25T13:37:38;5.40;;;4.10;;
27127;SDS011;14660;49.008;8.390;2023-04-25T13:40:06;4.82;;;3.38;;
27127;SDS011;14660;49.008;8.390;2023-04-25T13:42:36;4.93;;;3.28;;
27127;SDS011;14660;49.008;8.390;2023-04-25T13:45:03;3.35;;;2.83;;
27127;SDS011;14660;49.008;8.390;2023-04-25T13:47:30;3.45;;;2.75;;
27127;SDS011;14660;49.008;8.390;2023-04-25T13:49:57;3.97;;;2.90;;
27127;SDS011;14660;49.008;8.390;2023-04-25T13:52:24;4.97;;;3.63;;
27127;SDS011;14660;49.008;8.390;2023-04-25T13:54:52;6.45;;;3.70;;
27127;SDS011;14660;49.008;8.390;2023-04-25T13:57:19;5.13;;;3.28;;
27127;SDS011;14660;49.008;8.390;2023-04-25T13:59:45;6.35;;;3.40;;
27127;SDS011;14660;49.008;8.390;2023-04-25T14:02:12;4.22;;;3.47;;
27127;SDS011;14660;49.008;8.390;2023-04-25T14:04:40;7.47;;;3.63;;
27127;SDS011;14660;49.008;8.390;2023-04-25T14:07:07;7.05;;;3.83;;
27127;SDS011;14660;49.008;8.390;2023-04-25T14:09:34;6.38;;;3.42;;
27127;SDS011;14660;49.008;8.390;2023-04-25T14:12:01;4.63;;;3.80;;
27127;SDS011;14660;49.008;8.390;2023-04-25T14:14:28;7.55;;;4.07;;
27127;SDS011;14660;49.008;8.390;2023-04-25T14:16:55;8.32;;;4.63;;
27127;SDS011;14660;49.008;8.390;2023-04-25T14:19:23;5.80;;;3.85;;
27127;SDS011;14660;49.008;8.390;2023-04-25T14:21:53;5.93;;;3.80;;
27127;SDS011;14660;49.008;8.390;2023-04-25T14:24:21;6.85;;;4.10;;
27127;SDS011;14660;49.008;8.390;2023-04-25T14:26:47;5.65;;;4.13;;
27127;SDS011;14660;49.008;8.390;2023-04-25T14:29:14;5.82;;;3.78;;
27127;SDS011;14660;49.008;8.390;2023-04-25T14:31:42;4.30;;;3.28;;
27127;SDS011;14660;49.008;8.390;2023-04-25T14:34:08;6.95;;;3.75;;
27127;SDS011;14660;49.008;8.390;2023-04-25T14:36:35;4.38;;;3.50;;
27127;SDS011;14660;49.008;8.390;2023-04-25T14:39:03;5.63;;;3.78;;
27127;SDS011;14660;49.008;8.390;2023-04-25T14:41:32;5.13;;;4.18;;
27127;SDS011;14660;49.008;8.390;2023-04-25T14:43:59;6.78;;;3.38;;
27127;SDS011;14660;49.008;8.390;2023-04-25T14:46:26;6.97;;;3.40;;
27127;SDS011;14660;49.008;8.390;2023-04-25T14:48:53;5.40;;;3.67;;
27127;SDS011;14660;49.008;8.390;2023-04-25T14:51:21;3.63;;;3.28;;
27127;SDS011;14660;49.008;8.390;2023-04-25T14:53:48;6.72;;;3.17;;
27127;SDS011;14660;49.008;8.390;2023-04-25T14:56:16;5.80;;;3.53;;
27127;SDS011;14660;49.008;8.390;2023-04-25T14:58:42;3.65;;;3.25;;
27127;SDS011;14660;49.008;8.390;2023-04-25T15:01:09;8.85;;;3.65;;
27127;SDS011;14660;49.008;8.390;2023-04-25T15:03:37;7.22;;;3.90;;
27127;SDS011;14660;49.008;8.390;2023-04-25T15:06:04;5.63;;;3.70;;
27127;SDS011;14660;49.008;8.390;2023-04-25T15:08:32;5.60;;;3.25;;
27127;SDS011;14660;49.008;8.390;2023-04-25T15:11:02;4.13;;;3.72;;
27127;SDS011;14660;49.008;8.390;2023-04-25T15:13:29;4.45;;;2.75;;